createdAt,value
2023-06-25T00:00:39.138Z,57.00
2023-06-25T00:03:06.648Z,56.90
2023-06-25T00:05:33.676Z,56.90
2023-06-25T00:08:00.822Z,56.80
2023-06-25T00:10:27.908Z,56.90
2023-06-25T00:12:55.204Z,56.80
2023-06-25T00:15:22.265Z,56.90
2023-06-25T00:17:50.473Z,57.00
2023-06-25T00:20:18.515Z,57.00
2023-06-25T00:22:57.866Z,57.10
2023-06-25T00:25:33.106Z,57.10
2023-06-25T00:28:01.573Z,57.30
2023-06-25T00:30:29.703Z,57.30
2023-06-25T00:32:58.012Z,57.40
2023-06-25T00:35:29.186Z,57.30
2023-06-25T00:38:02.078Z,57.30
2023-06-25T00:40:29.324Z,57.40
2023-06-25T00:42:59.378Z,57.50
2023-06-25T00:45:27.676Z,57.50
2023-06-25T00:47:56.301Z,57.50
2023-06-25T00:50:23.932Z,57.60
2023-06-25T00:52:53.107Z,57.70
2023-06-25T00:55:21.406Z,57.80
2023-06-25T00:57:48.724Z,57.90
2023-06-25T01:00:16.650Z,57.80
2023-06-25T01:03:14.853Z,57.80
2023-06-25T01:06:13.861Z,58.00
2023-06-25T01:08:51.589Z,58.00
2023-06-25T01:11:19.312Z,58.00
2023-06-25T01:13:46.365Z,58.10
2023-06-25T01:16:13.452Z,58.00
2023-06-25T01:18:45.197Z,58.10
2023-06-25T01:21:17.962Z,58.30
2023-06-25T01:23:45.224Z,58.40
2023-06-25T01:26:12.437Z,58.40
2023-06-25T01:28:39.729Z,58.50
2023-06-25T01:31:09.065Z,58.50
2023-06-25T01:33:36.233Z,58.50
2023-06-25T01:36:04.060Z,58.50
2023-06-25T01:38:31.010Z,58.50
2023-06-25T01:40:58.103Z,58.50
2023-06-25T01:43:25.389Z,58.50
2023-06-25T01:45:52.696Z,58.50
2023-06-25T01:48:22.107Z,58.50
2023-06-25T01:50:49.370Z,58.60
2023-06-25T01:53:16.635Z,58.40
2023-06-25T01:55:43.757Z,58.40
2023-06-25T01:58:11.136Z,58.50
2023-06-25T02:00:39.014Z,58.50
2023-06-25T02:03:06.184Z,58.60
2023-06-25T02:05:33.379Z,58.60
2023-06-25T02:08:00.537Z,58.60
2023-06-25T02:10:29.793Z,58.60
2023-06-25T02:12:57.735Z,58.50
2023-06-25T02:15:25.148Z,58.70
2023-06-25T02:17:52.532Z,58.70
2023-06-25T02:20:20.535Z,58.70
2023-06-25T02:22:49.306Z,58.80
2023-06-25T02:25:16.592Z,58.80
2023-06-25T02:27:43.730Z,58.80
2023-06-25T02:30:11.781Z,58.90
2023-06-25T02:32:39.076Z,58.90
2023-06-25T02:35:06.977Z,58.90
2023-06-25T02:37:33.978Z,58.90
2023-06-25T02:40:01.704Z,58.80
2023-06-25T02:42:29.081Z,58.90
2023-06-25T02:44:55.999Z,58.90
2023-06-25T02:47:23.141Z,59.00
2023-06-25T02:49:50.722Z,59.10
2023-06-25T02:52:18.355Z,59.10
2023-06-25T02:54:45.840Z,59.10
2023-06-25T02:57:12.959Z,59.10
2023-06-25T02:59:40.111Z,59.00
2023-06-25T03:02:07.512Z,59.20
2023-06-25T03:04:34.913Z,59.20
2023-06-25T03:07:02.456Z,59.20
2023-06-25T03:09:29.604Z,59.10
2023-06-25T03:11:57.540Z,59.00
2023-06-25T03:14:34.996Z,59.20
2023-06-25T03:17:05.515Z,59.10
2023-06-25T03:19:33.051Z,59.10
2023-06-25T03:22:00.631Z,59.10
2023-06-25T03:24:29.652Z,59.20
2023-06-25T03:26:56.994Z,59.20
2023-06-25T03:29:25.296Z,59.10
2023-06-25T03:31:53.046Z,59.20
2023-06-25T03:34:23.660Z,59.20
2023-06-25T03:36:52.233Z,59.40
2023-06-25T03:39:19.568Z,59.40
2023-06-25T03:41:46.810Z,59.50
2023-06-25T03:44:13.970Z,59.50
2023-06-25T03:46:41.311Z,59.60
2023-06-25T03:49:08.368Z,59.60
2023-06-25T03:51:37.388Z,59.60
2023-06-25T03:54:05.813Z,59.60
2023-06-25T03:56:33.005Z,59.60
2023-06-25T03:59:00.239Z,59.70
2023-06-25T04:01:28.922Z,59.70
2023-06-25T04:03:57.279Z,59.70
2023-06-25T04:06:24.405Z,59.70
2023-06-25T04:08:51.431Z,59.80
2023-06-25T04:11:19.314Z,59.80
2023-06-25T04:13:46.551Z,60.00
2023-06-25T04:16:13.522Z,59.90
2023-06-25T04:18:43.548Z,59.90
2023-06-25T04:21:10.781Z,59.90
2023-06-25T04:23:38.253Z,59.90
2023-06-25T04:26:06.430Z,60.00
2023-06-25T04:28:33.505Z,60.00
2023-06-25T04:31:02.223Z,60.00
2023-06-25T04:33:29.354Z,60.10
2023-06-25T04:35:56.823Z,60.00
2023-06-25T04:38:24.195Z,60.10
2023-06-25T04:40:51.815Z,60.10
2023-06-25T04:43:18.874Z,60.10
2023-06-25T04:45:46.985Z,60.10
2023-06-25T04:48:14.218Z,60.20
2023-06-25T04:50:41.477Z,60.20
2023-06-25T04:53:08.924Z,60.20
2023-06-25T04:55:36.212Z,60.30
2023-06-25T04:58:04.452Z,60.20
2023-06-25T05:00:31.595Z,60.40
2023-06-25T05:02:58.732Z,60.30
2023-06-25T05:05:26.013Z,60.30
2023-06-25T05:07:53.507Z,60.40
2023-06-25T05:10:22.468Z,60.50
2023-06-25T05:12:49.742Z,60.50
2023-06-25T05:15:17.867Z,60.50
2023-06-25T05:17:45.324Z,60.50
2023-06-25T05:20:12.852Z,60.60
2023-06-25T05:22:39.974Z,60.50
2023-06-25T05:25:07.361Z,60.60
2023-06-25T05:27:34.718Z,60.70
2023-06-25T05:30:02.214Z,60.70
2023-06-25T05:32:29.343Z,60.80
2023-06-25T05:34:56.594Z,60.80
2023-06-25T05:37:23.591Z,60.90
2023-06-25T05:39:50.710Z,60.90
2023-06-25T05:42:17.735Z,61.00
2023-06-25T05:44:46.603Z,61.00
2023-06-25T05:47:13.883Z,61.00
2023-06-25T05:49:40.898Z,61.00
2023-06-25T05:52:08.719Z,61.00
2023-06-25T05:54:35.734Z,61.00
2023-06-25T05:57:02.717Z,61.00
2023-06-25T05:59:29.791Z,61.10
2023-06-25T06:01:57.043Z,61.00
2023-06-25T06:04:24.270Z,61.00
2023-06-25T06:06:51.354Z,61.10
2023-06-25T06:09:18.781Z,61.00
2023-06-25T06:11:46.053Z,61.10
2023-06-25T06:14:13.353Z,61.10
2023-06-25T06:16:40.452Z,61.10
2023-06-25T06:19:07.681Z,61.10
2023-06-25T06:21:34.990Z,61.00
2023-06-25T06:24:02.019Z,61.10
2023-06-25T06:26:29.402Z,61.20
2023-06-25T06:28:56.361Z,61.20
2023-06-25T06:31:23.781Z,61.20
2023-06-25T06:33:51.327Z,61.10
2023-06-25T06:36:19.069Z,61.10
2023-06-25T06:38:46.443Z,61.10
2023-06-25T06:41:13.910Z,61.10
2023-06-25T06:43:41.673Z,61.10
2023-06-25T06:46:09.020Z,61.10
2023-06-25T06:48:36.227Z,61.10
2023-06-25T06:51:03.218Z,61.00
2023-06-25T06:53:30.394Z,61.10
2023-06-25T06:55:57.376Z,61.10
2023-06-25T06:58:24.489Z,61.10
2023-06-25T07:00:51.711Z,61.00
2023-06-25T07:03:18.657Z,61.10
2023-06-25T07:05:45.914Z,61.00
2023-06-25T07:08:14.172Z,61.10
2023-06-25T07:10:41.327Z,61.10
2023-06-25T07:13:08.283Z,61.00
2023-06-25T07:15:37.041Z,61.00
2023-06-25T07:18:04.421Z,61.00
2023-06-25T07:20:31.582Z,61.10
2023-06-25T07:22:58.669Z,61.10
2023-06-25T07:25:25.781Z,61.10
2023-06-25T07:27:52.952Z,61.00
2023-06-25T07:30:20.151Z,61.10
2023-06-25T07:32:47.233Z,61.00
2023-06-25T07:35:14.492Z,61.10
2023-06-25T07:37:42.163Z,61.10
2023-06-25T07:40:09.602Z,61.10
2023-06-25T07:42:36.629Z,61.10
2023-06-25T07:45:04.081Z,61.20
2023-06-25T07:47:31.235Z,61.20
2023-06-25T07:49:58.274Z,61.20
2023-06-25T07:52:25.335Z,61.10
2023-06-25T07:54:52.498Z,62.00
2023-06-25T07:57:19.911Z,61.10
2023-06-25T07:59:53.387Z,61.10
2023-06-25T08:02:22.460Z,62.00
2023-06-25T08:04:50.848Z,61.10
2023-06-25T08:07:18.379Z,61.00
2023-06-25T08:09:46.365Z,61.00
2023-06-25T08:12:16.150Z,60.90
2023-06-25T08:14:44.299Z,61.00
2023-06-25T08:17:11.273Z,61.00
2023-06-25T08:19:38.497Z,61.00
2023-06-25T08:22:05.930Z,61.00
2023-06-25T08:24:32.920Z,61.00
2023-06-25T08:26:59.966Z,61.00
2023-06-25T08:29:27.487Z,61.00
2023-06-25T08:31:54.917Z,61.00
2023-06-25T08:34:22.064Z,60.90
2023-06-25T08:36:49.113Z,60.90
2023-06-25T08:39:16.252Z,60.80
2023-06-25T08:41:43.951Z,60.80
2023-06-25T08:44:11.588Z,60.80
2023-06-25T08:46:39.834Z,60.70
2023-06-25T08:49:07.586Z,60.60
2023-06-25T08:51:36.908Z,60.60
2023-06-25T08:54:04.461Z,60.60
2023-06-25T08:56:31.687Z,60.60
2023-06-25T08:58:58.868Z,60.60
2023-06-25T09:01:26.096Z,60.60
2023-06-25T09:03:54.356Z,60.60
2023-06-25T09:06:22.912Z,60.70
2023-06-25T09:08:50.732Z,60.70
2023-06-25T09:11:17.674Z,60.80
2023-06-25T09:13:45.902Z,60.80
2023-06-25T09:16:13.093Z,60.80
2023-06-25T09:18:40.262Z,60.90
2023-06-25T09:21:10.468Z,60.90
2023-06-25T09:23:38.673Z,60.90
2023-06-25T09:26:14.241Z,60.90
2023-06-25T09:29:00.418Z,60.90
2023-06-25T09:31:28.319Z,60.90
2023-06-25T09:33:55.759Z,60.90
2023-06-25T09:38:54.718Z,60.90
2023-06-25T09:41:23.196Z,60.90
2023-06-25T09:43:51.769Z,60.80
2023-06-25T09:46:20.604Z,60.70
2023-06-25T09:48:52.479Z,60.60
2023-06-25T09:51:21.421Z,60.60
2023-06-25T09:53:51.065Z,60.60
2023-06-25T09:56:19.710Z,60.50
2023-06-25T09:58:46.819Z,60.60
2023-06-25T10:01:15.156Z,60.50
2023-06-25T10:03:43.992Z,60.50
2023-06-25T10:06:11.601Z,60.30
2023-06-25T10:08:39.260Z,60.30
2023-06-25T10:11:07.289Z,60.30
2023-06-25T10:13:40.403Z,60.20
2023-06-25T10:16:07.510Z,60.30
2023-06-25T10:18:43.291Z,60.20
2023-06-25T10:21:20.350Z,60.00
2023-06-25T10:24:02.736Z,60.00
2023-06-25T10:26:39.796Z,60.00
2023-06-25T10:29:08.592Z,60.10
2023-06-25T10:31:40.729Z,60.10
2023-06-25T10:34:09.745Z,60.00
2023-06-25T10:36:37.073Z,60.20
2023-06-25T10:39:04.935Z,60.10
2023-06-25T10:41:33.327Z,60.00
2023-06-25T10:44:01.007Z,60.00
2023-06-25T10:46:35.817Z,60.00
2023-06-25T10:49:04.045Z,59.80
2023-06-25T10:51:31.441Z,59.90
2023-06-25T10:53:58.576Z,59.90
2023-06-25T10:56:25.745Z,59.90
2023-06-25T10:58:59.744Z,59.90
2023-06-25T11:01:35.239Z,59.60
2023-06-25T11:04:02.891Z,59.60
2023-06-25T11:06:38.134Z,59.70
2023-06-25T11:09:05.302Z,59.70
2023-06-25T11:11:32.559Z,59.60
2023-06-25T11:14:02.014Z,59.50
2023-06-25T11:16:28.982Z,59.40
2023-06-25T11:18:56.169Z,59.30
2023-06-25T11:21:23.394Z,59.30
2023-06-25T11:23:52.035Z,59.40
2023-06-25T11:26:19.161Z,59.40
2023-06-25T11:28:49.699Z,59.40
2023-06-25T11:31:16.894Z,59.40
2023-06-25T11:33:54.811Z,59.40
2023-06-25T11:36:24.820Z,60.50
2023-06-25T11:38:51.836Z,59.30
2023-06-25T11:41:28.462Z,60.30
2023-06-25T11:43:55.644Z,58.90
2023-06-25T11:46:22.901Z,59.20
2023-06-25T11:48:51.150Z,58.90
2023-06-25T11:51:18.281Z,58.90
2023-06-25T11:53:45.404Z,58.80
2023-06-25T11:56:12.439Z,58.70
2023-06-25T11:58:39.451Z,58.70
2023-06-25T12:01:06.611Z,58.70
2023-06-25T12:03:34.833Z,58.60
2023-06-25T12:06:02.462Z,58.60
2023-06-25T12:08:29.689Z,58.60
2023-06-25T12:10:56.972Z,58.60
2023-06-25T12:13:23.934Z,58.60
2023-06-25T12:15:50.922Z,58.50
2023-06-25T12:18:18.011Z,58.40
2023-06-25T12:20:45.220Z,58.30
2023-06-25T12:23:12.228Z,58.30
2023-06-25T12:25:40.395Z,58.30
2023-06-25T12:28:07.628Z,58.30
2023-06-25T12:30:34.680Z,58.30
2023-06-25T12:33:01.822Z,58.20
2023-06-25T12:35:29.603Z,59.50
2023-06-25T12:37:56.701Z,58.20
2023-06-25T12:40:23.876Z,58.10
2023-06-25T12:42:51.052Z,58.00
2023-06-25T12:45:22.177Z,58.00
2023-06-25T12:47:49.284Z,57.90
2023-06-25T12:50:17.480Z,57.80
2023-06-25T12:52:45.118Z,57.90
2023-06-25T12:55:12.373Z,57.80
2023-06-25T12:57:40.028Z,57.70
2023-06-25T13:00:10.836Z,57.80
2023-06-25T13:02:42.024Z,57.80
2023-06-25T13:05:09.234Z,57.70
2023-06-25T13:07:36.477Z,57.70
2023-06-25T13:10:04.412Z,57.60
2023-06-25T13:12:31.746Z,57.50
2023-06-25T13:14:59.070Z,57.50
2023-06-25T13:17:26.427Z,57.40
2023-06-25T13:19:53.913Z,57.40
2023-06-25T13:22:20.936Z,57.40
2023-06-25T13:24:48.281Z,57.40
2023-06-25T13:27:15.518Z,57.50
2023-06-25T13:29:43.237Z,57.50
2023-06-25T13:32:10.425Z,57.70
2023-06-25T13:34:37.524Z,57.50
2023-06-25T13:37:04.757Z,57.40
2023-06-25T13:39:32.642Z,57.40
2023-06-25T13:41:59.600Z,57.30
2023-06-25T13:44:26.830Z,57.10
2023-06-25T13:46:57.062Z,57.00
2023-06-25T13:49:24.308Z,56.80
2023-06-25T13:51:51.462Z,56.80
2023-06-25T13:54:18.561Z,56.70
2023-06-25T13:56:46.206Z,56.60
2023-06-25T13:59:13.387Z,56.40
2023-06-25T14:01:41.802Z,56.30
2023-06-25T14:04:08.933Z,56.30
2023-06-25T14:06:36.178Z,56.30
2023-06-25T14:09:04.531Z,56.10
2023-06-25T14:11:31.546Z,56.20
2023-06-25T14:13:58.714Z,56.20
2023-06-25T14:16:32.945Z,56.10
2023-06-25T14:19:00.809Z,56.10
2023-06-25T14:21:29.163Z,56.30
2023-06-25T14:23:56.867Z,56.30
2023-06-25T14:26:23.924Z,56.00
2023-06-25T14:29:02.360Z,56.00
2023-06-25T14:31:37.433Z,55.90
2023-06-25T14:34:04.676Z,55.80
2023-06-25T14:36:32.329Z,55.60
2023-06-25T14:38:59.343Z,55.50
2023-06-25T14:41:27.797Z,55.50
2023-06-25T14:43:54.957Z,55.40
2023-06-25T14:46:21.991Z,55.20
2023-06-25T14:48:49.407Z,55.20
2023-06-25T14:51:16.547Z,55.10
2023-06-25T14:53:43.672Z,55.30
2023-06-25T14:56:11.347Z,55.30
2023-06-25T14:58:38.628Z,55.30
2023-06-25T15:01:05.999Z,55.30
2023-06-25T15:03:33.280Z,55.20
2023-06-25T15:06:09.966Z,55.20
2023-06-25T15:08:41.779Z,55.10
2023-06-25T15:11:09.186Z,55.10
2023-06-25T15:13:37.020Z,54.90
2023-06-25T15:16:04.298Z,54.50
2023-06-25T15:18:31.634Z,54.50
2023-06-25T15:20:59.002Z,54.30
2023-06-25T15:23:26.501Z,55.30
2023-06-25T15:25:56.364Z,54.00
2023-06-25T15:28:25.221Z,53.90
2023-06-25T15:30:53.734Z,53.90
2023-06-25T15:33:21.462Z,53.90
2023-06-25T15:35:48.624Z,53.90
2023-06-25T15:38:15.853Z,53.70
2023-06-25T15:40:43.082Z,53.50
2023-06-25T15:43:10.227Z,53.40
2023-06-25T15:45:40.500Z,53.40
2023-06-25T15:48:08.358Z,54.60
2023-06-25T15:50:40.692Z,53.30
2023-06-25T15:53:08.057Z,53.30
2023-06-25T15:55:35.656Z,53.40
2023-06-25T15:58:03.523Z,53.30
2023-06-25T16:00:30.809Z,53.40
2023-06-25T16:02:58.022Z,53.40
2023-06-25T16:05:25.146Z,53.40
2023-06-25T16:07:52.197Z,53.50
2023-06-25T16:10:19.477Z,53.50
2023-06-25T16:12:46.561Z,53.40
2023-06-25T16:15:13.785Z,53.60
2023-06-25T16:17:41.088Z,53.70
2023-06-25T16:20:11.668Z,53.60
2023-06-25T16:22:40.309Z,54.80
2023-06-25T16:25:08.302Z,53.40
2023-06-25T16:27:35.484Z,53.40
2023-06-25T16:30:05.416Z,53.20
2023-06-25T16:32:34.392Z,53.10
2023-06-25T16:35:01.611Z,53.10
2023-06-25T16:37:28.830Z,54.30
2023-06-25T16:39:55.962Z,53.00
2023-06-25T16:42:25.048Z,53.00
2023-06-25T16:44:52.415Z,53.00
2023-06-25T16:47:19.528Z,52.90
2023-06-25T16:49:46.974Z,53.00
2023-06-25T16:52:14.339Z,52.90
2023-06-25T16:54:41.523Z,52.80
2023-06-25T16:57:08.863Z,52.60
2023-06-25T16:59:35.846Z,52.60
2023-06-25T17:02:05.635Z,52.50
2023-06-25T17:04:38.839Z,52.30
2023-06-25T17:07:07.707Z,52.10
2023-06-25T17:09:39.128Z,52.20
2023-06-25T17:12:07.178Z,52.00
2023-06-25T17:14:34.387Z,52.00
2023-06-25T17:17:01.382Z,52.00
2023-06-25T17:19:28.552Z,51.90
2023-06-25T17:21:56.376Z,51.90
2023-06-25T17:24:23.325Z,53.00
2023-06-25T17:26:50.586Z,51.70
2023-06-25T17:29:18.111Z,51.50
2023-06-25T17:31:45.308Z,51.40
2023-06-25T17:34:12.422Z,51.40
2023-06-25T17:36:39.845Z,51.30
2023-06-25T17:39:08.146Z,51.30
2023-06-25T17:41:35.774Z,51.20
2023-06-25T17:44:02.877Z,51.10
2023-06-25T17:46:30.879Z,51.00
2023-06-25T17:48:59.245Z,50.90
2023-06-25T17:51:26.946Z,51.00
2023-06-25T17:53:54.082Z,50.90
2023-06-25T17:56:22.479Z,50.90
2023-06-25T17:58:49.895Z,50.90
2023-06-25T18:01:17.351Z,51.00
2023-06-25T18:03:45.208Z,51.00
2023-06-25T18:06:12.243Z,51.10
2023-06-25T18:08:40.305Z,51.10
2023-06-25T18:11:26.644Z,51.30
2023-06-25T18:13:55.514Z,51.20
2023-06-25T18:16:22.711Z,51.40
2023-06-25T18:18:50.991Z,51.50
2023-06-25T18:21:18.281Z,51.80
2023-06-25T18:23:45.872Z,51.90
2023-06-25T18:26:13.280Z,52.00
2023-06-25T18:28:40.244Z,52.10
2023-06-25T18:31:08.921Z,52.10
2023-06-25T18:33:36.710Z,52.20
2023-06-25T18:36:04.042Z,52.20
2023-06-25T18:38:31.026Z,52.30
2023-06-25T18:40:59.856Z,52.30
2023-06-25T18:43:29.444Z,52.50
2023-06-25T18:45:56.738Z,52.50
2023-06-25T18:48:25.332Z,52.50
2023-06-25T18:50:54.080Z,52.60
2023-06-25T18:53:21.139Z,52.60
2023-06-25T18:55:50.085Z,52.60
2023-06-25T18:58:17.436Z,52.70
2023-06-25T19:00:45.443Z,52.70
2023-06-25T19:03:14.484Z,52.60
2023-06-25T19:05:41.870Z,52.70
2023-06-25T19:08:08.884Z,52.80
2023-06-25T19:10:36.174Z,52.90
2023-06-25T19:13:03.633Z,52.90
2023-06-25T19:15:30.775Z,52.90
2023-06-25T19:17:58.144Z,53.00
2023-06-25T19:20:25.239Z,53.00
2023-06-25T19:25:23.992Z,52.90
2023-06-25T19:27:52.331Z,53.10
2023-06-25T19:30:19.424Z,53.00
2023-06-25T19:32:46.469Z,53.00
2023-06-25T19:35:13.729Z,53.10
2023-06-25T19:37:40.778Z,53.00
2023-06-25T19:40:08.887Z,53.20
2023-06-25T19:42:38.787Z,53.10
2023-06-25T19:45:06.366Z,53.00
2023-06-25T19:47:33.438Z,53.20
2023-06-25T19:50:02.097Z,53.20
2023-06-25T19:52:29.952Z,53.40
2023-06-25T19:54:57.783Z,53.30
2023-06-25T19:57:24.939Z,53.30
2023-06-25T19:59:51.887Z,53.40
2023-06-25T20:02:19.936Z,53.50
2023-06-25T20:04:47.112Z,53.50
2023-06-25T20:07:14.711Z,53.50
2023-06-25T20:09:41.808Z,53.50
2023-06-25T20:12:09.046Z,53.50
2023-06-25T20:14:37.394Z,53.50
2023-06-25T20:17:06.277Z,53.50
2023-06-25T20:19:33.803Z,53.50
2023-06-25T20:22:00.976Z,53.60
2023-06-25T20:24:28.480Z,53.40
2023-06-25T20:26:55.624Z,53.40
2023-06-25T20:29:22.592Z,53.60
2023-06-25T20:31:50.007Z,53.50
2023-06-25T20:34:16.979Z,53.40
2023-06-25T20:36:43.907Z,53.70
2023-06-25T20:39:11.012Z,53.70
2023-06-25T20:41:38.619Z,53.70
2023-06-25T20:44:05.693Z,53.90
2023-06-25T20:46:32.830Z,53.90
2023-06-25T20:48:59.827Z,54.00
2023-06-25T20:51:27.031Z,53.90
2023-06-25T20:53:54.427Z,53.90
2023-06-25T20:56:21.487Z,54.00
2023-06-25T20:58:48.536Z,53.80
2023-06-25T21:01:15.570Z,54.00
2023-06-25T21:03:42.658Z,53.90
2023-06-25T21:06:09.851Z,54.00
2023-06-25T21:08:36.836Z,53.80
2023-06-25T21:11:03.912Z,54.00
2023-06-25T21:13:30.990Z,53.70
2023-06-25T21:15:57.979Z,53.90
2023-06-25T21:18:25.097Z,54.00
2023-06-25T21:20:52.170Z,54.00
2023-06-25T21:23:19.150Z,54.00
2023-06-25T21:25:46.196Z,54.10
2023-06-25T21:28:13.234Z,54.20
2023-06-25T21:30:40.596Z,54.30
2023-06-25T21:33:07.892Z,54.30
2023-06-25T21:35:35.108Z,54.30
2023-06-25T21:38:02.066Z,54.40
2023-06-25T21:40:29.201Z,54.30
2023-06-25T21:42:56.867Z,54.30
2023-06-25T21:45:23.983Z,54.40
2023-06-25T21:47:51.187Z,54.40
2023-06-25T21:50:18.257Z,54.50
2023-06-25T21:52:46.725Z,54.60
2023-06-25T21:55:14.407Z,54.70
2023-06-25T21:57:41.493Z,54.80
2023-06-25T22:00:11.892Z,54.80
2023-06-25T22:02:45.061Z,54.90
2023-06-25T22:05:12.623Z,54.90
2023-06-25T22:07:39.675Z,55.00
2023-06-25T22:10:06.889Z,55.00
2023-06-25T22:12:33.899Z,55.00
2023-06-25T22:15:01.002Z,54.90
2023-06-25T22:17:28.148Z,55.00
2023-06-25T22:19:55.390Z,55.10
2023-06-25T22:22:22.843Z,55.10
2023-06-25T22:24:49.976Z,56.40
2023-06-25T22:27:17.163Z,55.10
2023-06-25T22:29:44.530Z,55.20
2023-06-25T22:32:13.033Z,55.10
2023-06-25T22:34:40.412Z,55.20
2023-06-25T22:37:07.495Z,55.20
2023-06-25T22:39:34.521Z,56.40
2023-06-25T22:42:01.515Z,55.10
2023-06-25T22:44:28.689Z,55.20
2023-06-25T22:46:55.931Z,55.10
2023-06-25T22:49:23.099Z,55.30
2023-06-25T22:51:52.922Z,55.20
2023-06-25T22:54:20.037Z,55.20
2023-06-25T22:56:47.307Z,55.40
2023-06-25T22:59:14.262Z,55.50
2023-06-25T23:01:41.327Z,55.40
2023-06-25T23:04:08.663Z,55.50
2023-06-25T23:06:35.777Z,55.50
2023-06-25T23:09:05.055Z,55.70
2023-06-25T23:11:32.097Z,55.60
2023-06-25T23:13:59.332Z,55.60
2023-06-25T23:16:28.605Z,55.70
2023-06-25T23:18:57.152Z,55.70
2023-06-25T23:21:25.166Z,55.70
2023-06-25T23:23:56.379Z,55.80
2023-06-25T23:26:27.712Z,55.80
2023-06-25T23:28:55.732Z,55.80
2023-06-25T23:31:25.859Z,55.80
2023-06-25T23:33:53.413Z,55.80
2023-06-25T23:36:25.472Z,55.90
2023-06-25T23:38:53.973Z,55.90
2023-06-25T23:41:21.000Z,56.00
2023-06-25T23:43:47.973Z,55.90
2023-06-25T23:46:14.989Z,56.00
2023-06-25T23:48:42.006Z,57.20
2023-06-25T23:51:09.092Z,55.90
2023-06-25T23:53:36.237Z,55.90
2023-06-25T23:56:03.244Z,56.00
2023-06-25T23:58:30.309Z,56.00
